createdAt,value
2023-05-16T00:00:35.225Z,21.60
2023-05-16T00:03:03.300Z,21.88
2023-05-16T00:05:30.396Z,21.15
2023-05-16T00:07:57.049Z,19.70
2023-05-16T00:10:23.766Z,21.80
2023-05-16T00:12:53.594Z,20.90
2023-05-16T00:15:20.405Z,20.90
2023-05-16T00:17:47.161Z,21.08
2023-05-16T00:20:14.405Z,20.40
2023-05-16T00:22:41.961Z,19.88
2023-05-16T00:25:09.482Z,19.08
2023-05-16T00:27:36.535Z,18.60
2023-05-16T00:30:03.987Z,20.17
2023-05-16T00:32:31.234Z,20.75
2023-05-16T00:34:57.884Z,20.10
2023-05-16T00:37:24.564Z,20.95
2023-05-16T00:39:51.283Z,19.70
2023-05-16T00:42:20.878Z,20.33
2023-05-16T00:44:50.651Z,19.23
2023-05-16T00:47:17.286Z,19.73
2023-05-16T00:49:44.117Z,20.23
2023-05-16T00:52:11.597Z,18.98
2023-05-16T00:54:38.441Z,20.17
2023-05-16T00:57:06.712Z,19.65
2023-05-16T00:59:34.057Z,19.85
2023-05-16T01:02:01.326Z,20.48
2023-05-16T01:04:28.526Z,21.42
2023-05-16T01:06:58.616Z,20.75
2023-05-16T01:09:25.329Z,19.40
2023-05-16T01:11:54.685Z,20.52
2023-05-16T01:14:46.031Z,19.02
2023-05-16T01:17:36.802Z,20.65
2023-05-16T01:20:15.671Z,19.95
2023-05-16T01:23:27.735Z,18.55
2023-05-16T01:26:01.111Z,18.50
2023-05-16T01:28:28.550Z,18.33
2023-05-16T01:30:55.457Z,19.88
2023-05-16T01:33:22.099Z,19.48
2023-05-16T01:36:11.683Z,18.60
2023-05-16T01:39:19.239Z,18.20
2023-05-16T01:42:03.622Z,17.92
2023-05-16T01:44:51.823Z,18.15
2023-05-16T01:47:21.661Z,19.08
2023-05-16T01:50:05.193Z,19.17
2023-05-16T01:52:39.018Z,19.50
2023-05-16T01:55:13.746Z,18.30
2023-05-16T01:57:42.202Z,19.02
2023-05-16T02:00:09.335Z,17.42
2023-05-16T02:02:36.008Z,18.80
2023-05-16T02:05:02.719Z,19.58
2023-05-16T02:07:29.456Z,19.45
2023-05-16T02:09:56.087Z,18.85
2023-05-16T02:12:22.845Z,19.10
2023-05-16T02:14:49.507Z,20.45
2023-05-16T02:17:16.164Z,19.00
2023-05-16T02:19:42.902Z,18.58
2023-05-16T02:22:09.511Z,18.85
2023-05-16T02:24:36.335Z,19.38
2023-05-16T02:27:02.958Z,18.25
2023-05-16T02:29:29.571Z,16.85
2023-05-16T02:31:56.174Z,18.65
2023-05-16T02:34:22.930Z,17.30
2023-05-16T02:36:49.547Z,17.75
2023-05-16T02:39:16.261Z,17.77
2023-05-16T02:41:42.868Z,16.92
2023-05-16T02:44:09.478Z,18.55
2023-05-16T02:46:36.734Z,17.63
2023-05-16T02:49:03.661Z,17.73
2023-05-16T02:51:30.309Z,18.00
2023-05-16T02:53:57.235Z,18.15
2023-05-16T02:56:23.992Z,16.15
2023-05-16T02:58:50.713Z,17.83
2023-05-16T03:01:17.824Z,16.30
2023-05-16T03:03:44.886Z,16.02
2023-05-16T03:06:12.314Z,16.38
2023-05-16T03:08:38.919Z,17.77
2023-05-16T03:11:05.574Z,16.40
2023-05-16T03:13:33.035Z,17.00
2023-05-16T03:16:00.213Z,17.70
2023-05-16T03:18:26.874Z,15.68
2023-05-16T03:20:53.496Z,17.58
2023-05-16T03:23:20.870Z,16.60
2023-05-16T03:25:48.034Z,18.17
2023-05-16T03:28:16.383Z,16.58
2023-05-16T03:30:43.051Z,15.82
2023-05-16T03:33:09.731Z,17.30
2023-05-16T03:35:36.986Z,16.17
2023-05-16T03:38:04.109Z,15.57
2023-05-16T03:40:30.915Z,17.15
2023-05-16T03:42:57.543Z,15.70
2023-05-16T03:45:24.216Z,15.20
2023-05-16T03:47:51.191Z,15.70
2023-05-16T03:50:18.202Z,16.30
2023-05-16T03:52:45.116Z,15.35
2023-05-16T03:55:14.338Z,15.38
2023-05-16T03:57:42.231Z,15.10
2023-05-16T04:00:11.332Z,16.00
2023-05-16T04:02:41.290Z,14.35
2023-05-16T04:05:09.352Z,15.10
2023-05-16T04:07:36.636Z,14.63
2023-05-16T04:10:04.582Z,14.68
2023-05-16T04:12:31.345Z,13.88
2023-05-16T04:14:58.081Z,13.18
2023-05-16T04:17:24.898Z,12.65
2023-05-16T04:19:51.609Z,12.35
2023-05-16T04:22:18.266Z,11.27
2023-05-16T04:24:44.908Z,10.30
2023-05-16T04:27:12.166Z,9.85
2023-05-16T04:29:38.880Z,9.05
2023-05-16T04:32:07.526Z,9.00
2023-05-16T04:34:39.883Z,8.40
2023-05-16T04:37:08.381Z,8.00
2023-05-16T04:39:36.182Z,8.27
2023-05-16T04:42:03.725Z,6.70
2023-05-16T04:44:30.543Z,6.90
2023-05-16T04:46:57.696Z,7.10
2023-05-16T04:49:24.446Z,6.15
2023-05-16T04:51:51.228Z,7.00
2023-05-16T04:54:18.043Z,6.32
2023-05-16T04:56:44.740Z,6.30
2023-05-16T04:59:11.361Z,5.68
2023-05-16T05:01:38.050Z,5.10
2023-05-16T05:04:04.797Z,5.30
2023-05-16T05:06:31.610Z,5.00
2023-05-16T05:08:58.295Z,5.30
2023-05-16T05:11:25.044Z,5.00
2023-05-16T05:13:53.126Z,4.97
2023-05-16T05:16:19.892Z,5.03
2023-05-16T05:18:46.658Z,4.80
2023-05-16T05:21:13.808Z,5.00
2023-05-16T05:23:41.058Z,4.80
2023-05-16T05:26:07.778Z,4.43
2023-05-16T05:28:34.491Z,4.57
2023-05-16T05:31:01.122Z,4.95
2023-05-16T05:33:30.897Z,5.03
2023-05-16T05:35:57.722Z,4.70
2023-05-16T05:38:24.374Z,4.78
2023-05-16T05:40:51.127Z,4.65
2023-05-16T05:43:17.756Z,4.57
2023-05-16T05:45:44.707Z,4.57
2023-05-16T05:48:12.496Z,4.90
2023-05-16T05:50:39.338Z,4.50
2023-05-16T05:53:06.164Z,4.70
2023-05-16T05:55:32.981Z,4.60
2023-05-16T05:57:59.670Z,4.72
2023-05-16T06:00:26.450Z,4.85
2023-05-16T06:02:53.326Z,4.90
2023-05-16T06:05:20.210Z,4.60
2023-05-16T06:07:46.835Z,4.70
2023-05-16T06:10:13.493Z,4.57
2023-05-16T06:12:40.150Z,4.72
2023-05-16T06:15:07.625Z,4.70
2023-05-16T06:17:34.340Z,4.80
2023-05-16T06:20:01.409Z,4.30
2023-05-16T06:22:28.109Z,4.55
2023-05-16T06:24:54.742Z,4.53
2023-05-16T06:27:21.345Z,4.03
2023-05-16T06:29:47.963Z,4.30
2023-05-16T06:32:14.625Z,4.20
2023-05-16T06:34:41.266Z,4.25
2023-05-16T06:37:07.876Z,4.40
2023-05-16T06:39:34.692Z,4.38
2023-05-16T06:42:01.380Z,4.40
2023-05-16T06:44:28.098Z,4.45
2023-05-16T06:46:54.840Z,4.00
2023-05-16T06:49:21.651Z,3.95
2023-05-16T06:51:48.306Z,4.15
2023-05-16T06:54:15.060Z,4.18
2023-05-16T06:56:41.797Z,4.30
2023-05-16T06:59:08.694Z,4.50
2023-05-16T07:01:35.536Z,4.00
2023-05-16T07:04:02.413Z,4.00
2023-05-16T07:06:29.199Z,4.03
2023-05-16T07:08:56.117Z,4.28
2023-05-16T07:11:22.796Z,4.13
2023-05-16T07:13:49.598Z,4.13
2023-05-16T07:16:16.347Z,4.00
2023-05-16T07:18:43.503Z,4.05
2023-05-16T07:21:10.202Z,4.20
2023-05-16T07:23:36.834Z,4.07
2023-05-16T07:26:03.750Z,4.20
2023-05-16T07:28:30.464Z,4.13
2023-05-16T07:30:58.748Z,4.00
2023-05-16T07:33:25.728Z,4.07
2023-05-16T07:35:56.080Z,4.18
2023-05-16T07:38:31.380Z,4.30
2023-05-16T07:40:58.068Z,4.00
2023-05-16T07:43:24.893Z,4.18
2023-05-16T07:45:52.261Z,4.35
2023-05-16T07:48:19.028Z,4.25
2023-05-16T07:50:45.776Z,3.90
2023-05-16T07:53:12.409Z,3.95
2023-05-16T07:55:39.143Z,4.03
2023-05-16T07:58:06.352Z,4.15
2023-05-16T08:00:33.143Z,3.97
2023-05-16T08:03:00.007Z,4.00
2023-05-16T08:05:26.968Z,4.03
2023-05-16T08:07:53.790Z,3.95
2023-05-16T08:10:20.445Z,3.97
2023-05-16T08:12:48.322Z,4.20
2023-05-16T08:15:15.339Z,3.88
2023-05-16T08:17:42.290Z,3.90
2023-05-16T08:20:09.305Z,4.47
2023-05-16T08:22:36.001Z,4.00
2023-05-16T08:25:02.746Z,3.80
2023-05-16T08:27:29.650Z,3.78
2023-05-16T08:29:56.361Z,3.83
2023-05-16T08:32:23.413Z,4.03
2023-05-16T08:34:50.046Z,3.85
2023-05-16T08:37:17.476Z,3.83
2023-05-16T08:39:44.183Z,3.97
2023-05-16T08:42:10.999Z,3.80
2023-05-16T08:44:37.694Z,3.83
2023-05-16T08:47:13.829Z,3.92
2023-05-16T08:49:42.246Z,3.72
2023-05-16T08:52:10.142Z,4.13
2023-05-16T08:54:37.726Z,4.03
2023-05-16T08:57:05.602Z,3.80
2023-05-16T08:59:32.824Z,3.80
2023-05-16T09:01:59.773Z,3.88
2023-05-16T09:04:27.647Z,3.80
2023-05-16T09:06:54.507Z,3.92
2023-05-16T09:09:21.223Z,4.13
2023-05-16T09:11:48.030Z,4.00
2023-05-16T09:14:14.872Z,3.80
2023-05-16T09:16:41.687Z,3.90
2023-05-16T09:19:13.121Z,3.85
2023-05-16T09:21:40.277Z,3.60
2023-05-16T09:24:09.443Z,3.85
2023-05-16T09:26:38.473Z,4.00
2023-05-16T09:29:14.486Z,3.85
2023-05-16T09:31:41.418Z,3.90
2023-05-16T09:34:09.308Z,3.90
2023-05-16T09:36:36.741Z,3.80
2023-05-16T09:39:03.513Z,3.63
2023-05-16T09:41:35.045Z,3.80
2023-05-16T09:44:06.353Z,3.88
2023-05-16T09:46:35.909Z,3.60
2023-05-16T09:49:03.111Z,3.75
2023-05-16T09:51:29.894Z,4.00
2023-05-16T09:53:59.116Z,3.90
2023-05-16T09:56:25.745Z,3.90
2023-05-16T09:58:52.713Z,3.70
2023-05-16T10:01:20.266Z,3.60
2023-05-16T10:03:47.248Z,3.60
2023-05-16T10:06:14.589Z,3.70
2023-05-16T10:08:43.227Z,3.90
2023-05-16T10:11:10.942Z,4.00
2023-05-16T10:13:38.985Z,3.70
2023-05-16T10:16:10.093Z,3.80
2023-05-16T10:18:39.018Z,4.10
2023-05-16T10:21:14.421Z,3.55
2023-05-16T10:23:47.610Z,4.25
2023-05-16T10:26:16.994Z,4.13
2023-05-16T10:28:44.137Z,4.00
2023-05-16T10:31:11.786Z,4.45
2023-05-16T10:33:39.629Z,3.95
2023-05-16T10:36:08.429Z,4.32
2023-05-16T10:38:36.344Z,5.03
2023-05-16T10:41:03.545Z,4.05
2023-05-16T10:43:31.081Z,4.78
2023-05-16T10:46:06.927Z,4.80
2023-05-16T10:48:39.034Z,4.47
2023-05-16T10:51:24.051Z,4.55
2023-05-16T10:53:54.983Z,4.05
2023-05-16T10:56:27.340Z,4.07
2023-05-16T10:58:56.001Z,4.15
2023-05-16T11:01:32.887Z,4.30
2023-05-16T11:03:59.660Z,4.97
2023-05-16T11:06:45.560Z,4.22
2023-05-16T11:09:13.509Z,3.97
2023-05-16T11:11:53.625Z,4.00
2023-05-16T11:14:32.437Z,4.40
2023-05-16T11:17:24.081Z,4.10
2023-05-16T11:19:51.769Z,3.80
2023-05-16T11:22:25.607Z,4.47
2023-05-16T11:25:06.475Z,4.55
2023-05-16T11:27:41.611Z,5.65
2023-05-16T11:30:13.066Z,4.38
2023-05-16T11:32:41.486Z,4.30
2023-05-16T11:35:11.088Z,4.97
2023-05-16T11:37:39.817Z,4.25
2023-05-16T11:40:08.640Z,3.80
2023-05-16T11:42:38.141Z,4.10
2023-05-16T11:45:12.714Z,4.70
2023-05-16T11:47:40.634Z,4.10
2023-05-16T11:50:12.275Z,5.15
2023-05-16T11:52:39.081Z,5.40
2023-05-16T11:55:11.276Z,5.78
2023-05-16T11:57:44.282Z,3.95
2023-05-16T12:00:16.237Z,4.10
2023-05-16T12:02:44.071Z,4.10
2023-05-16T12:05:11.591Z,4.82
2023-05-16T12:07:38.373Z,5.15
2023-05-16T12:10:09.199Z,4.20
2023-05-16T12:12:38.278Z,5.18
2023-05-16T12:15:06.886Z,4.00
2023-05-16T12:17:37.985Z,4.23
2023-05-16T12:20:06.987Z,4.63
2023-05-16T12:22:34.495Z,4.00
2023-05-16T12:25:21.771Z,4.43
2023-05-16T12:27:48.460Z,3.90
2023-05-16T12:30:17.920Z,3.60
2023-05-16T12:32:45.158Z,3.50
2023-05-16T12:35:13.175Z,3.10
2023-05-16T12:37:39.884Z,3.37
2023-05-16T12:40:12.526Z,3.60
2023-05-16T12:42:39.181Z,3.50
2023-05-16T12:45:14.420Z,3.90
2023-05-16T12:47:41.184Z,4.00
2023-05-16T12:50:14.121Z,3.37
2023-05-16T12:52:49.620Z,3.60
2023-05-16T12:55:21.892Z,3.70
2023-05-16T12:57:49.867Z,3.50
2023-05-16T13:00:19.434Z,4.10
2023-05-16T13:02:47.560Z,3.55
2023-05-16T13:05:15.416Z,3.37
2023-05-16T13:07:42.183Z,3.37
2023-05-16T13:10:11.257Z,3.17
2023-05-16T13:12:40.324Z,3.37
2023-05-16T13:15:08.571Z,3.30
2023-05-16T13:17:36.549Z,3.50
2023-05-16T13:20:10.492Z,3.80
2023-05-16T13:22:37.681Z,3.43
2023-05-16T13:25:06.032Z,3.30
2023-05-16T13:27:34.084Z,3.23
2023-05-16T13:30:01.602Z,3.20
2023-05-16T13:32:28.303Z,3.50
2023-05-16T13:34:55.180Z,3.70
2023-05-16T13:37:24.297Z,3.53
2023-05-16T13:39:51.078Z,3.70
2023-05-16T13:42:20.603Z,3.23
2023-05-16T13:44:47.434Z,3.43
2023-05-16T13:47:14.288Z,3.45
2023-05-16T13:49:40.932Z,3.10
2023-05-16T13:52:08.489Z,3.50
2023-05-16T13:54:35.480Z,3.43
2023-05-16T13:57:03.342Z,3.20
2023-05-16T13:59:46.739Z,3.50
2023-05-16T14:02:16.833Z,3.30
2023-05-16T14:04:43.492Z,3.10
2023-05-16T14:07:10.286Z,3.10
2023-05-16T14:09:39.370Z,4.20
2023-05-16T14:12:09.425Z,3.10
2023-05-16T14:14:36.507Z,3.30
2023-05-16T14:17:04.195Z,3.17
2023-05-16T14:19:31.266Z,3.40
2023-05-16T14:21:58.274Z,3.17
2023-05-16T14:24:24.978Z,3.33
2023-05-16T14:26:57.564Z,3.40
2023-05-16T14:29:25.269Z,3.47
2023-05-16T14:31:52.146Z,3.77
2023-05-16T14:34:18.872Z,3.50
2023-05-16T14:36:45.569Z,3.70
2023-05-16T14:39:12.255Z,3.40
2023-05-16T14:41:38.927Z,3.23
2023-05-16T14:44:05.864Z,3.83
2023-05-16T14:46:32.654Z,3.50
2023-05-16T14:48:59.721Z,3.55
2023-05-16T14:51:26.377Z,3.75
2023-05-16T14:53:53.165Z,3.33
2023-05-16T14:56:19.970Z,3.53
2023-05-16T14:58:46.587Z,4.00
2023-05-16T15:01:13.265Z,3.42
2023-05-16T15:03:53.703Z,3.30
2023-05-16T15:06:22.350Z,3.65
2023-05-16T15:08:49.005Z,3.60
2023-05-16T15:11:15.685Z,3.70
2023-05-16T15:13:42.446Z,3.35
2023-05-16T15:16:09.204Z,3.70
2023-05-16T15:18:36.193Z,3.50
2023-05-16T15:21:03.001Z,3.65
2023-05-16T15:23:30.028Z,3.70
2023-05-16T15:25:56.742Z,3.60
2023-05-16T15:28:23.487Z,4.53
2023-05-16T15:30:51.490Z,4.50
2023-05-16T15:33:18.276Z,3.60
2023-05-16T15:35:45.219Z,3.90
2023-05-16T15:38:12.026Z,3.92
2023-05-16T15:40:38.890Z,4.18
2023-05-16T15:43:05.554Z,3.72
2023-05-16T15:45:32.545Z,4.10
2023-05-16T15:47:59.293Z,3.97
2023-05-16T15:50:26.425Z,4.00
2023-05-16T15:52:53.187Z,4.80
2023-05-16T15:55:19.988Z,3.80
2023-05-16T15:57:46.745Z,4.10
2023-05-16T16:00:14.024Z,4.85
2023-05-16T16:02:42.333Z,4.05
2023-05-16T16:05:09.231Z,3.35
2023-05-16T16:07:36.051Z,6.65
2023-05-16T16:10:02.701Z,4.18
2023-05-16T16:12:31.300Z,4.20
2023-05-16T16:14:58.292Z,4.50
2023-05-16T16:17:25.118Z,4.00
2023-05-16T16:19:51.808Z,3.63
2023-05-16T16:22:19.792Z,3.70
2023-05-16T16:24:47.650Z,3.60
2023-05-16T16:27:14.301Z,4.60
2023-05-16T16:29:40.958Z,3.85
2023-05-16T16:32:07.785Z,3.78
2023-05-16T16:34:34.601Z,3.70
2023-05-16T16:37:01.259Z,3.95
2023-05-16T16:39:30.453Z,3.85
2023-05-16T16:41:58.843Z,3.80
2023-05-16T16:44:25.980Z,3.88
2023-05-16T16:46:52.723Z,3.70
2023-05-16T16:49:19.421Z,3.73
2023-05-16T16:51:47.216Z,3.70
2023-05-16T16:54:14.246Z,3.70
2023-05-16T16:56:40.996Z,3.90
2023-05-16T16:59:07.876Z,4.30
2023-05-16T17:01:35.116Z,3.95
2023-05-16T17:04:02.149Z,3.67
2023-05-16T17:06:30.023Z,3.75
2023-05-16T17:08:57.248Z,3.63
2023-05-16T17:11:23.945Z,3.70
2023-05-16T17:13:51.220Z,3.90
2023-05-16T17:16:17.955Z,3.67
2023-05-16T17:18:44.717Z,4.03
2023-05-16T17:21:12.835Z,3.60
2023-05-16T17:23:41.697Z,3.60
2023-05-16T17:26:09.975Z,3.53
2023-05-16T17:28:36.623Z,3.70
2023-05-16T17:31:04.065Z,3.67
2023-05-16T17:33:31.185Z,3.83
2023-05-16T17:35:57.864Z,4.00
2023-05-16T17:38:24.652Z,4.00
2023-05-16T17:40:51.340Z,4.20
2023-05-16T17:43:18.005Z,4.20
2023-05-16T17:45:44.721Z,3.90
2023-05-16T17:48:11.446Z,4.00
2023-05-16T17:50:38.324Z,3.92
2023-05-16T17:53:05.062Z,4.25
2023-05-16T17:55:33.499Z,3.90
2023-05-16T17:58:00.275Z,4.05
2023-05-16T18:00:27.056Z,4.00
2023-05-16T18:02:53.813Z,4.15
2023-05-16T18:05:20.616Z,4.10
2023-05-16T18:07:47.331Z,4.43
2023-05-16T18:10:14.625Z,3.95
2023-05-16T18:12:41.697Z,4.20
2023-05-16T18:15:10.538Z,3.80
2023-05-16T18:17:37.399Z,3.78
2023-05-16T18:20:09.448Z,3.92
2023-05-16T18:22:39.996Z,4.07
2023-05-16T18:25:09.224Z,4.07
2023-05-16T18:27:36.807Z,3.83
2023-05-16T18:30:05.531Z,4.32
2023-05-16T18:32:32.777Z,4.50
2023-05-16T18:34:59.475Z,3.90
2023-05-16T18:37:26.244Z,4.50
2023-05-16T18:39:53.020Z,4.40
2023-05-16T18:42:19.700Z,4.10
2023-05-16T18:44:46.450Z,4.88
2023-05-16T18:47:15.712Z,4.05
2023-05-16T18:49:43.210Z,4.10
2023-05-16T18:52:10.634Z,4.03
2023-05-16T18:54:38.748Z,4.10
2023-05-16T18:57:06.494Z,4.20
2023-05-16T18:59:33.853Z,4.30
2023-05-16T19:02:00.854Z,4.55
2023-05-16T19:04:27.799Z,4.38
2023-05-16T19:06:56.253Z,4.40
2023-05-16T19:09:23.369Z,4.45
2023-05-16T19:11:50.073Z,4.20
2023-05-16T19:14:17.123Z,4.18
2023-05-16T19:16:43.780Z,4.10
2023-05-16T19:19:10.509Z,4.40
2023-05-16T19:21:37.880Z,4.30
2023-05-16T19:24:05.203Z,4.35
2023-05-16T19:26:32.340Z,4.00
2023-05-16T19:28:59.099Z,4.70
2023-05-16T19:31:25.891Z,4.28
2023-05-16T19:33:52.647Z,4.28
2023-05-16T19:36:19.305Z,4.07
2023-05-16T19:38:45.969Z,4.40
2023-05-16T19:41:12.658Z,4.45
2023-05-16T19:43:39.360Z,5.53
2023-05-16T19:46:06.266Z,4.60
2023-05-16T19:48:33.107Z,5.00
2023-05-16T19:50:59.881Z,4.65
2023-05-16T19:53:26.635Z,4.65
2023-05-16T19:55:53.304Z,4.53
2023-05-16T19:58:20.037Z,4.38
2023-05-16T20:00:47.080Z,4.40
2023-05-16T20:03:14.126Z,4.40
2023-05-16T20:05:40.961Z,4.80
2023-05-16T20:08:07.702Z,5.28
2023-05-16T20:10:35.182Z,4.70
2023-05-16T20:13:01.999Z,4.57
2023-05-16T20:15:28.935Z,4.72
2023-05-16T20:17:56.690Z,4.88
2023-05-16T20:20:23.623Z,4.93
2023-05-16T20:22:50.389Z,4.78
2023-05-16T20:25:17.114Z,4.88
2023-05-16T20:27:43.787Z,4.47
2023-05-16T20:30:10.826Z,4.88
2023-05-16T20:32:37.511Z,5.13
2023-05-16T20:35:08.839Z,4.70
2023-05-16T20:37:35.560Z,4.85
2023-05-16T20:40:02.482Z,4.47
2023-05-16T20:42:29.148Z,4.72
2023-05-16T20:44:55.830Z,4.68
2023-05-16T20:47:22.500Z,4.47
2023-05-16T20:49:49.208Z,4.43
2023-05-16T20:52:15.881Z,4.80
2023-05-16T20:54:42.586Z,4.75
2023-05-16T20:57:09.370Z,5.15
2023-05-16T20:59:37.349Z,4.95
2023-05-16T21:02:05.751Z,4.75
2023-05-16T21:04:32.469Z,5.47
2023-05-16T21:06:59.116Z,4.50
2023-05-16T21:09:25.968Z,4.53
2023-05-16T21:11:52.695Z,4.55
2023-05-16T21:14:19.360Z,5.00
2023-05-16T21:16:46.068Z,4.75
2023-05-16T21:19:12.789Z,4.72
2023-05-16T21:21:39.501Z,4.80
2023-05-16T21:24:06.482Z,4.80
2023-05-16T21:26:33.165Z,4.90
2023-05-16T21:28:59.856Z,5.20
2023-05-16T21:31:26.641Z,4.63
2023-05-16T21:33:53.356Z,4.70
2023-05-16T21:36:20.981Z,5.07
2023-05-16T21:38:48.167Z,4.60
2023-05-16T21:41:15.114Z,4.55
2023-05-16T21:43:41.761Z,4.90
2023-05-16T21:46:08.481Z,4.75
2023-05-16T21:48:36.041Z,4.47
2023-05-16T21:51:03.689Z,4.70
2023-05-16T21:53:30.421Z,5.47
2023-05-16T21:55:57.102Z,4.95
2023-05-16T21:58:25.126Z,5.15
2023-05-16T22:00:51.977Z,4.72
2023-05-16T22:03:21.119Z,5.05
2023-05-16T22:05:48.018Z,5.00
2023-05-16T22:08:14.731Z,5.20
2023-05-16T22:10:41.592Z,5.18
2023-05-16T22:13:08.547Z,5.55
2023-05-16T22:15:35.402Z,4.95
2023-05-16T22:18:02.436Z,5.50
2023-05-16T22:20:29.723Z,4.95
2023-05-16T22:22:56.629Z,5.50
2023-05-16T22:25:23.452Z,5.43
2023-05-16T22:27:50.284Z,5.10
2023-05-16T22:30:17.001Z,5.45
2023-05-16T22:32:45.589Z,5.40
2023-05-16T22:35:13.448Z,5.47
2023-05-16T22:37:40.122Z,5.30
2023-05-16T22:40:07.850Z,5.20
2023-05-16T22:42:34.603Z,5.22
2023-05-16T22:45:01.295Z,5.05
2023-05-16T22:47:28.858Z,4.80
2023-05-16T22:49:55.790Z,5.50
2023-05-16T22:52:22.549Z,6.05
2023-05-16T22:54:49.288Z,5.13
2023-05-16T22:57:16.106Z,5.28
2023-05-16T22:59:42.919Z,5.80
2023-05-16T23:02:09.660Z,5.07
2023-05-16T23:04:36.481Z,5.38
2023-05-16T23:07:03.302Z,5.70
2023-05-16T23:09:29.960Z,5.32
2023-05-16T23:11:56.652Z,5.35
2023-05-16T23:14:23.370Z,5.07
2023-05-16T23:16:50.011Z,5.35
2023-05-16T23:19:16.818Z,5.30
2023-05-16T23:21:44.423Z,5.55
2023-05-16T23:24:11.136Z,5.22
2023-05-16T23:26:37.838Z,5.60
2023-05-16T23:29:04.612Z,5.70
2023-05-16T23:31:31.371Z,5.05
2023-05-16T23:33:58.087Z,5.88
2023-05-16T23:36:24.805Z,5.50
2023-05-16T23:38:51.512Z,5.35
2023-05-16T23:41:18.253Z,5.35
2023-05-16T23:43:44.921Z,5.25
2023-05-16T23:46:11.737Z,4.93
2023-05-16T23:48:39.944Z,5.47
2023-05-16T23:51:07.582Z,5.00
2023-05-16T23:53:35.196Z,5.32
2023-05-16T23:56:01.962Z,4.90
2023-05-16T23:58:28.772Z,5.45
